Time;durP1;ratioP1;P1;durP2;ratioP2;P2;SDS_P1;SDS_P2;PMS_P1;PMS_P2;Temp;Humidity;BMP_temperature;BMP_pressure;BME280_temperature;BME280_humidity;BME280_pressure;Samples;Min_cycle;Max_cycle;Signal;HPM_P1;HPM_P2
2021/07/10 00:00:47;;;;;;;13.88;10.77;;;;;;;;;;1492709;39;20387;-58
2021/07/10 00:01:48;;;;;;;16.58;11.38;;;;;;;;;;1492711;39;20391;-58
2021/07/10 00:02:50;;;;;;;16.63;11.02;;;;;;;;;;1492819;39;20024;-57
2021/07/10 00:03:51;;;;;;;15.95;10.75;;;;;;;;;;1492616;39;20035;-58
2021/07/10 00:04:52;;;;;;;15.27;10.55;;;;;;;;;;1492604;39;20024;-57
2021/07/10 00:05:53;;;;;;;18.35;11.48;;;;;;;;;;1492639;39;20473;-57
2021/07/10 00:06:56;;;;;;;13.98;11.15;;;;;;;;;;1493339;39;20082;-58
2021/07/10 00:08:00;;;;;;;16.88;11.45;;;;;;;;;;1493292;39;20027;-58
2021/07/10 00:09:00;;;;;;;19.10;11.18;;;;;;;;;;1493218;39;20020;-58
2021/07/10 00:10:06;;;;;;;14.73;10.88;;;;;;;;;;1493296;39;20024;-57
2021/07/10 00:11:08;;;;;;;15.25;10.85;;;;;;;;;;1493210;39;20024;-58
2021/07/10 00:12:09;;;;;;;16.92;10.50;;;;;;;;;;1493259;39;20031;-57
2021/07/10 00:13:11;;;;;;;14.18;10.38;;;;;;;;;;1493166;39;20024;-58
2021/07/10 00:14:12;;;;;;;15.65;10.20;;;;;;;;;;1493385;39;20031;-57
2021/07/10 00:15:16;;;;;;;13.43;10.25;;;;;;;;;;1493300;39;20024;-57
2021/07/10 00:16:17;;;;;;;15.75;10.68;;;;;;;;;;1493173;39;20024;-58
2021/07/10 00:17:18;;;;;;;17.02;10.35;;;;;;;;;;1493155;39;20024;-57
2021/07/10 00:18:19;;;;;;;15.70;11.30;;;;;;;;;;1493293;39;20295;-57
2021/07/10 00:19:21;;;;;;;12.80;10.07;;;;;;;;;;1493407;39;20024;-57
2021/07/10 00:20:22;;;;;;;16.25;11.63;;;;;;;;;;1493178;39;20031;-58
2021/07/10 00:21:24;;;;;;;16.13;11.68;;;;;;;;;;1493560;39;20064;-58
2021/07/10 00:22:25;;;;;;;16.30;11.23;;;;;;;;;;1493173;39;20024;-58
2021/07/10 00:23:28;;;;;;;17.40;11.57;;;;;;;;;;1493534;39;20028;-57
2021/07/10 00:24:30;;;;;;;16.60;11.38;;;;;;;;;;1493263;39;20031;-57
2021/07/10 00:25:32;;;;;;;18.02;12.63;;;;;;;;;;1493395;39;20036;-57
2021/07/10 00:26:33;;;;;;;17.90;11.70;;;;;;;;;;1493199;39;20024;-58
2021/07/10 00:27:37;;;;;;;16.58;11.40;;;;;;;;;;1493298;39;20032;-58
2021/07/10 00:28:38;;;;;;;14.93;11.10;;;;;;;;;;1493316;39;20020;-57
2021/07/10 00:29:40;;;;;;;14.35;11.32;;;;;;;;;;1493416;39;20291;-57
2021/07/10 00:30:41;;;;;;;15.60;10.98;;;;;;;;;;1493163;39;20291;-57
2021/07/10 00:31:43;;;;;;;16.70;11.23;;;;;;;;;;1493282;39;20031;-58
2021/07/10 00:32:44;;;;;;;16.48;10.88;;;;;;;;;;1493244;39;20027;-58
2021/07/10 00:33:46;;;;;;;16.30;11.38;;;;;;;;;;1493338;39;20020;-57
2021/07/10 00:34:47;;;;;;;14.38;10.73;;;;;;;;;;1493214;39;20031;-58
2021/07/10 00:35:49;;;;;;;18.92;11.40;;;;;;;;;;1493267;39;20380;-57
2021/07/10 00:36:50;;;;;;;17.20;11.57;;;;;;;;;;1493201;39;20029;-58
2021/07/10 00:37:52;;;;;;;14.55;11.63;;;;;;;;;;1493083;39;20035;-58
2021/07/10 00:38:56;;;;;;;16.10;11.75;;;;;;;;;;1493105;39;20024;-57
2021/07/10 00:39:58;;;;;;;17.00;11.35;;;;;;;;;;1493366;39;20035;-57
2021/07/10 00:40:59;;;;;;;16.08;11.18;;;;;;;;;;1493333;39;20290;-57
2021/07/10 00:42:01;;;;;;;14.05;11.25;;;;;;;;;;1493276;39;20353;-58
2021/07/10 00:43:02;;;;;;;15.57;11.25;;;;;;;;;;1493076;39;20283;-58
2021/07/10 00:44:04;;;;;;;16.77;11.35;;;;;;;;;;1493266;39;20031;-58
2021/07/10 00:45:08;;;;;;;15.82;10.50;;;;;;;;;;1493206;39;20024;-57
2021/07/10 00:46:15;;;;;;;15.75;11.32;;;;;;;;;;1493251;39;20024;-57
2021/07/10 00:47:17;;;;;;;15.85;10.98;;;;;;;;;;1493103;39;20295;-57
2021/07/10 00:48:19;;;;;;;15.50;11.55;;;;;;;;;;1493382;39;20060;-57
2021/07/10 00:49:20;;;;;;;14.93;11.70;;;;;;;;;;1493349;39;20426;-58
2021/07/10 00:50:23;;;;;;;15.27;11.40;;;;;;;;;;1493301;39;20024;-58
2021/07/10 00:51:24;;;;;;;15.50;11.77;;;;;;;;;;1493138;39;20020;-58
2021/07/10 00:52:26;;;;;;;16.05;11.70;;;;;;;;;;1493245;39;20035;-57
2021/07/10 00:53:27;;;;;;;17.60;11.43;;;;;;;;;;1493337;39;20020;-57
2021/07/10 00:54:32;;;;;;;17.85;12.00;;;;;;;;;;1493283;39;20291;-58
2021/07/10 00:55:33;;;;;;;17.48;11.05;;;;;;;;;;1493188;39;20383;-58
2021/07/10 00:56:34;;;;;;;16.90;12.10;;;;;;;;;;1493468;39;20024;-57
2021/07/10 00:57:37;;;;;;;16.58;11.23;;;;;;;;;;1493230;39;20028;-57
2021/07/10 00:58:39;;;;;;;20.15;12.73;;;;;;;;;;1493311;39;20047;-58
2021/07/10 00:59:40;;;;;;;18.05;11.88;;;;;;;;;;1493206;39;20024;-58
2021/07/10 01:00:44;;;;;;;14.88;11.50;;;;;;;;;;1493625;39;20023;-58
2021/07/10 01:01:45;;;;;;;17.52;12.02;;;;;;;;;;1493075;39;20020;-58
2021/07/10 01:02:48;;;;;;;18.17;12.13;;;;;;;;;;1493354;39;20031;-57
2021/07/10 01:03:49;;;;;;;16.42;11.90;;;;;;;;;;1493177;39;20360;-58
2021/07/10 01:04:51;;;;;;;15.52;11.23;;;;;;;;;;1493093;39;20024;-58
2021/07/10 01:05:51;;;;;;;18.15;12.05;;;;;;;;;;1493348;39;20028;-57
2021/07/10 01:06:53;;;;;;;17.40;12.15;;;;;;;;;;1493298;39;20020;-57
2021/07/10 01:07:55;;;;;;;18.73;11.73;;;;;;;;;;1493117;39;20031;-57
2021/07/10 01:08:57;;;;;;;15.88;11.15;;;;;;;;;;1493107;39;20064;-58
2021/07/10 01:09:59;;;;;;;16.40;11.48;;;;;;;;;;1493151;39;20027;-58
2021/07/10 01:11:01;;;;;;;15.52;11.77;;;;;;;;;;1493149;39;20039;-58
2021/07/10 01:12:02;;;;;;;15.48;11.48;;;;;;;;;;1493277;39;20020;-58
2021/07/10 01:13:04;;;;;;;17.70;11.63;;;;;;;;;;1493305;39;20320;-57
2021/07/10 01:14:06;;;;;;;18.88;12.05;;;;;;;;;;1493044;39;20027;-57
2021/07/10 01:15:10;;;;;;;15.93;11.77;;;;;;;;;;1493113;39;20020;-57
2021/07/10 01:16:10;;;;;;;18.65;12.05;;;;;;;;;;1493156;39;20023;-58
2021/07/10 01:17:12;;;;;;;19.75;12.32;;;;;;;;;;1493062;39;20027;-55
2021/07/10 01:18:13;;;;;;;15.40;11.15;;;;;;;;;;1493160;39;20030;-57
2021/07/10 01:19:21;;;;;;;17.30;11.77;;;;;;;;;;1493196;39;20040;-58
2021/07/10 01:20:23;;;;;;;18.95;11.70;;;;;;;;;;1493137;39;20024;-57
2021/07/10 01:21:26;;;;;;;19.60;11.95;;;;;;;;;;1493275;39;20308;-57
2021/07/10 01:22:27;;;;;;;17.92;11.68;;;;;;;;;;1493105;39;20020;-57
2021/07/10 01:23:29;;;;;;;17.02;11.40;;;;;;;;;;1493122;39;20020;-58
2021/07/10 01:24:30;;;;;;;17.13;11.00;;;;;;;;;;1493207;39;20031;-58
2021/07/10 01:25:31;;;;;;;15.98;10.82;;;;;;;;;;1493284;39;20287;-57
2021/07/10 01:26:32;;;;;;;13.85;11.23;;;;;;;;;;1493272;39;20031;-56
2021/07/10 01:27:34;;;;;;;16.73;11.75;;;;;;;;;;1493056;39;20395;-57
2021/07/10 01:28:36;;;;;;;19.10;12.27;;;;;;;;;;1493100;39;20310;-56
2021/07/10 01:29:37;;;;;;;18.45;12.63;;;;;;;;;;1493111;39;20024;-57
2021/07/10 01:30:39;;;;;;;18.33;12.63;;;;;;;;;;1493202;39;20024;-57
2021/07/10 01:31:40;;;;;;;21.65;14.85;;;;;;;;;;1493118;39;20405;-57
2021/07/10 01:32:45;;;;;;;19.88;12.80;;;;;;;;;;1493011;39;20024;-57
2021/07/10 01:33:46;;;;;;;15.77;11.75;;;;;;;;;;1493183;39;20098;-55
2021/07/10 01:34:50;;;;;;;16.27;11.20;;;;;;;;;;1493171;39;20116;-57
2021/07/10 01:35:52;;;;;;;16.65;11.45;;;;;;;;;;1493161;39;20433;-57
2021/07/10 01:36:54;;;;;;;17.40;11.18;;;;;;;;;;1493239;39;20053;-57
2021/07/10 01:37:56;;;;;;;19.42;12.18;;;;;;;;;;1493229;39;20079;-58
2021/07/10 01:38:57;;;;;;;18.13;11.50;;;;;;;;;;1493022;39;20094;-57
2021/07/10 01:39:59;;;;;;;18.58;11.32;;;;;;;;;;1493133;39;20088;-58
2021/07/10 01:41:00;;;;;;;14.38;10.88;;;;;;;;;;1492984;39;20030;-56
2021/07/10 01:42:02;;;;;;;15.57;11.10;;;;;;;;;;1493041;39;20039;-57
2021/07/10 01:43:05;;;;;;;16.13;11.38;;;;;;;;;;1492989;39;20032;-57
2021/07/10 01:44:06;;;;;;;15.25;11.18;;;;;;;;;;1493103;39;20036;-57
2021/07/10 01:45:09;;;;;;;16.80;10.90;;;;;;;;;;1493078;39;20016;-57
2021/07/10 01:46:10;;;;;;;16.98;11.23;;;;;;;;;;1493188;39;20031;-57
2021/07/10 01:47:12;;;;;;;16.52;11.82;;;;;;;;;;1493093;39;20027;-57
2021/07/10 01:48:15;;;;;;;16.35;10.77;;;;;;;;;;1493125;39;20056;-56
2021/07/10 01:49:15;;;;;;;17.60;11.60;;;;;;;;;;1493108;39;20027;-57
2021/07/10 01:50:18;;;;;;;14.90;11.15;;;;;;;;;;1493070;39;20020;-57
2021/07/10 01:51:19;;;;;;;15.95;10.82;;;;;;;;;;1493009;39;20027;-58
2021/07/10 01:52:22;;;;;;;15.90;11.48;;;;;;;;;;1493070;39;20291;-58
2021/07/10 01:53:23;;;;;;;15.48;10.98;;;;;;;;;;1493002;39;20054;-57
2021/07/10 01:54:24;;;;;;;17.42;11.20;;;;;;;;;;1493030;39;20032;-57
2021/07/10 01:55:25;;;;;;;17.83;11.95;;;;;;;;;;1493132;39;20031;-57
2021/07/10 01:56:27;;;;;;;15.77;11.18;;;;;;;;;;1493282;39;20050;-57
2021/07/10 01:57:28;;;;;;;16.77;11.13;;;;;;;;;;1492924;39;20035;-57
2021/07/10 01:58:30;;;;;;;16.30;11.70;;;;;;;;;;1493053;39;20291;-57
2021/07/10 01:59:31;;;;;;;16.70;11.80;;;;;;;;;;1492960;39;20410;-57
2021/07/10 02:00:35;;;;;;;21.58;13.35;;;;;;;;;;1493215;39;20032;-57
2021/07/10 02:01:36;;;;;;;22.45;13.77;;;;;;;;;;1493149;39;20303;-57
2021/07/10 02:02:39;;;;;;;23.52;13.90;;;;;;;;;;1493023;39;20037;-57
2021/07/10 02:03:39;;;;;;;21.70;13.70;;;;;;;;;;1492923;39;20028;-57
2021/07/10 02:04:46;;;;;;;23.30;12.80;;;;;;;;;;1493170;39;20059;-58
2021/07/10 02:05:46;;;;;;;18.15;12.15;;;;;;;;;;1492930;39;20391;-56
2021/07/10 02:06:48;;;;;;;18.05;11.88;;;;;;;;;;1493157;39;20035;-55
2021/07/10 02:07:52;;;;;;;16.13;11.60;;;;;;;;;;1492901;39;20399;-57
2021/07/10 02:08:53;;;;;;;16.65;11.55;;;;;;;;;;1493083;39;20019;-58
2021/07/10 02:09:54;;;;;;;16.42;10.93;;;;;;;;;;1492959;39;20414;-56
2021/07/10 02:10:56;;;;;;;16.23;10.90;;;;;;;;;;1493162;39;20056;-57
2021/07/10 02:11:57;;;;;;;17.33;10.25;;;;;;;;;;1493003;39;20031;-57
2021/07/10 02:13:02;;;;;;;15.68;10.70;;;;;;;;;;1492989;39;20315;-57
2021/07/10 02:14:03;;;;;;;20.30;12.40;;;;;;;;;;1493002;39;20383;-57
2021/07/10 02:15:06;;;;;;;15.18;11.65;;;;;;;;;;1493123;39;20043;-57
2021/07/10 02:16:07;;;;;;;16.48;11.45;;;;;;;;;;1492891;39;20028;-57
2021/07/10 02:17:09;;;;;;;15.13;10.82;;;;;;;;;;1492841;39;20027;-57
2021/07/10 02:18:10;;;;;;;15.45;11.05;;;;;;;;;;1493034;39;20026;-57
2021/07/10 02:19:12;;;;;;;14.45;11.13;;;;;;;;;;1493127;39;20364;-57
2021/07/10 02:20:15;;;;;;;15.82;11.18;;;;;;;;;;1492895;39;20020;-57
2021/07/10 02:21:17;;;;;;;16.48;10.50;;;;;;;;;;1493016;39;20024;-57
2021/07/10 02:22:18;;;;;;;13.40;10.18;;;;;;;;;;1492860;39;20020;-57
2021/07/10 02:23:21;;;;;;;15.60;10.00;;;;;;;;;;1492808;39;20024;-58
2021/07/10 02:24:22;;;;;;;13.93;9.70;;;;;;;;;;1492886;39;20046;-57
2021/07/10 02:25:25;;;;;;;12.60;9.80;;;;;;;;;;1493050;39;20059;-57
2021/07/10 02:26:26;;;;;;;17.92;10.73;;;;;;;;;;1492800;39;20020;-57
2021/07/10 02:27:27;;;;;;;15.18;10.88;;;;;;;;;;1492978;39;20028;-57
2021/07/10 02:28:28;;;;;;;15.57;10.23;;;;;;;;;;1492942;39;20064;-57
2021/07/10 02:29:30;;;;;;;12.90;10.27;;;;;;;;;;1492694;39;20383;-57
2021/07/10 02:30:34;;;;;;;14.95;9.25;;;;;;;;;;1492840;39;20031;-57
2021/07/10 02:31:36;;;;;;;17.10;10.80;;;;;;;;;;1492977;39;20264;-57
2021/07/10 02:32:38;;;;;;;14.43;10.27;;;;;;;;;;1492850;39;20027;-58
2021/07/10 02:33:40;;;;;;;14.23;9.63;;;;;;;;;;1492969;39;20028;-57
2021/07/10 02:34:41;;;;;;;15.82;10.07;;;;;;;;;;1492840;39;20035;-57
2021/07/10 02:35:43;;;;;;;11.35;9.23;;;;;;;;;;1492829;39;20023;-57
2021/07/10 02:36:44;;;;;;;16.65;10.18;;;;;;;;;;1492913;39;20400;-57
2021/07/10 02:37:48;;;;;;;13.10;9.13;;;;;;;;;;1493020;39;20032;-57
2021/07/10 02:38:50;;;;;;;12.90;9.48;;;;;;;;;;1492900;39;20031;-57
2021/07/10 02:39:52;;;;;;;13.25;9.63;;;;;;;;;;1492884;39;20483;-58
2021/07/10 02:40:53;;;;;;;14.82;9.68;;;;;;;;;;1493014;39;20075;-57
2021/07/10 02:41:55;;;;;;;19.10;10.10;;;;;;;;;;1492907;39;20399;-58
2021/07/10 02:42:55;;;;;;;14.23;9.85;;;;;;;;;;1492861;39;20023;-57
2021/07/10 02:43:57;;;;;;;15.02;10.23;;;;;;;;;;1492891;39;20031;-57
2021/07/10 02:44:58;;;;;;;16.70;10.32;;;;;;;;;;1493023;39;20020;-58
2021/07/10 02:46:01;;;;;;;13.43;9.45;;;;;;;;;;1492977;39;20016;-58
2021/07/10 02:47:02;;;;;;;14.95;9.68;;;;;;;;;;1492844;39;20302;-57
2021/07/10 02:48:05;;;;;;;13.38;9.43;;;;;;;;;;1492870;39;20368;-58
2021/07/10 02:49:06;;;;;;;16.95;11.10;;;;;;;;;;1492939;39;20024;-58
2021/07/10 02:50:11;;;;;;;16.40;10.10;;;;;;;;;;1492333;39;20443;-57
2021/07/10 02:51:12;;;;;;;13.57;9.63;;;;;;;;;;1492350;39;20020;-58
2021/07/10 02:52:14;;;;;;;13.27;9.55;;;;;;;;;;1493026;39;20031;-57
2021/07/10 02:53:15;;;;;;;12.95;8.82;;;;;;;;;;1492849;39;20294;-57
2021/07/10 02:54:33;;;;;;;12.50;9.18;;;;;;;;;;1493010;39;20027;-57
2021/07/10 02:55:36;;;;;;;15.50;9.10;;;;;;;;;;1492772;39;20023;-57
2021/07/10 02:56:37;;;;;;;11.85;8.95;;;;;;;;;;1492907;39;20027;-58
2021/07/10 02:57:39;;;;;;;13.60;9.70;;;;;;;;;;1492893;39;20383;-57
2021/07/10 02:58:40;;;;;;;14.70;9.73;;;;;;;;;;1492979;39;20043;-58
2021/07/10 02:59:42;;;;;;;13.05;9.52;;;;;;;;;;1492818;39;20031;-57
2021/07/10 03:00:43;;;;;;;13.45;8.85;;;;;;;;;;1492942;39;20094;-57
2021/07/10 03:01:45;;;;;;;11.82;8.90;;;;;;;;;;1492815;39;20024;-58
2021/07/10 03:02:46;;;;;;;14.02;8.80;;;;;;;;;;1492856;39;20387;-57
2021/07/10 03:03:48;;;;;;;13.25;8.73;;;;;;;;;;1492789;39;20020;-58
2021/07/10 03:04:49;;;;;;;13.20;8.60;;;;;;;;;;1492980;39;20119;-57
2021/07/10 03:05:51;;;;;;;13.45;9.00;;;;;;;;;;1492732;39;20035;-57
2021/07/10 03:06:52;;;;;;;15.70;9.43;;;;;;;;;;1492980;39;20031;-57
2021/07/10 03:07:54;;;;;;;14.00;8.70;;;;;;;;;;1492652;39;20383;-58
2021/07/10 03:08:55;;;;;;;13.50;8.73;;;;;;;;;;1492884;39;20020;-58
2021/07/10 03:09:58;;;;;;;14.25;8.88;;;;;;;;;;1492888;39;20287;-58
2021/07/10 03:10:59;;;;;;;15.32;8.85;;;;;;;;;;1492838;39;20031;-58
2021/07/10 03:12:01;;;;;;;11.73;8.93;;;;;;;;;;1492773;39;20020;-57
2021/07/10 03:13:02;;;;;;;11.85;8.70;;;;;;;;;;1492724;39;20032;-57
2021/07/10 03:14:04;;;;;;;12.20;8.63;;;;;;;;;;1492286;39;20084;-57
2021/07/10 03:15:07;;;;;;;14.25;9.13;;;;;;;;;;1492221;39;20024;-58
2021/07/10 03:16:09;;;;;;;12.05;8.80;;;;;;;;;;1492948;39;20028;-58
2021/07/10 03:17:10;;;;;;;13.88;8.90;;;;;;;;;;1492800;39;20031;-57
2021/07/10 03:18:11;;;;;;;14.50;8.48;;;;;;;;;;1492820;39;20304;-57
2021/07/10 03:19:12;;;;;;;13.55;8.57;;;;;;;;;;1492674;39;20297;-58
2021/07/10 03:20:16;;;;;;;15.57;9.00;;;;;;;;;;1492821;39;20024;-57
2021/07/10 03:21:17;;;;;;;13.32;8.18;;;;;;;;;;1492905;39;20024;-57
2021/07/10 03:22:19;;;;;;;12.00;8.77;;;;;;;;;;1492706;39;20031;-57
2021/07/10 03:23:19;;;;;;;11.75;8.32;;;;;;;;;;1492689;39;20268;-57
2021/07/10 03:24:21;;;;;;;15.05;8.57;;;;;;;;;;1492784;39;20031;-58
2021/07/10 03:25:24;;;;;;;17.02;9.25;;;;;;;;;;1492677;39;20387;-58
2021/07/10 03:26:26;;;;;;;13.52;8.30;;;;;;;;;;1492902;39;20035;-58
2021/07/10 03:27:27;;;;;;;14.85;9.00;;;;;;;;;;1492633;39;20023;-58
2021/07/10 03:28:28;;;;;;;10.45;8.02;;;;;;;;;;1492851;39;20031;-58
2021/07/10 03:29:29;;;;;;;11.55;8.23;;;;;;;;;;1492830;39;20035;-57
2021/07/10 03:30:31;;;;;;;12.18;8.43;;;;;;;;;;1492847;39;20108;-57
2021/07/10 03:31:32;;;;;;;13.00;8.50;;;;;;;;;;1492715;39;20024;-58
2021/07/10 03:32:34;;;;;;;13.02;8.07;;;;;;;;;;1493051;39;20279;-58
2021/07/10 03:33:37;;;;;;;11.07;8.00;;;;;;;;;;1492706;39;20046;-58
2021/07/10 03:34:39;;;;;;;9.52;7.97;;;;;;;;;;1492690;39;20388;-58
2021/07/10 03:35:40;;;;;;;11.40;8.30;;;;;;;;;;1492657;39;20024;-58
2021/07/10 03:36:42;;;;;;;11.80;8.38;;;;;;;;;;1492761;39;20027;-57
2021/07/10 03:37:43;;;;;;;12.48;7.95;;;;;;;;;;1492556;39;20120;-57
2021/07/10 03:38:45;;;;;;;10.93;7.82;;;;;;;;;;1492755;39;20032;-58
2021/07/10 03:39:46;;;;;;;13.88;8.35;;;;;;;;;;1492702;39;20031;-58
2021/07/10 03:40:49;;;;;;;10.20;7.53;;;;;;;;;;1492794;39;20020;-58
2021/07/10 03:41:49;;;;;;;13.13;7.70;;;;;;;;;;1493057;39;20286;-57
2021/07/10 03:42:50;;;;;;;17.10;8.52;;;;;;;;;;1493252;39;20023;-58
2021/07/10 03:43:53;;;;;;;13.00;8.23;;;;;;;;;;1493405;39;20024;-57
2021/07/10 03:44:53;;;;;;;12.02;8.07;;;;;;;;;;1493436;39;20023;-58
2021/07/10 03:45:56;;;;;;;11.80;7.70;;;;;;;;;;1493276;39;20335;-58
2021/07/10 03:46:57;;;;;;;15.13;8.13;;;;;;;;;;1493230;39;20364;-57
2021/07/10 03:47:59;;;;;;;12.63;8.65;;;;;;;;;;1493372;39;20027;-57
2021/07/10 03:49:00;;;;;;;16.00;8.75;;;;;;;;;;1493312;39;20406;-58
2021/07/10 03:50:02;;;;;;;16.08;8.57;;;;;;;;;;1493321;39;20024;-57
2021/07/10 03:51:03;;;;;;;12.82;9.07;;;;;;;;;;1493465;39;20108;-57
2021/07/10 03:52:06;;;;;;;12.85;8.30;;;;;;;;;;1493280;39;20024;-57
2021/07/10 03:53:07;;;;;;;17.23;8.90;;;;;;;;;;1493349;39;20024;-58
2021/07/10 03:54:09;;;;;;;16.58;8.43;;;;;;;;;;1493292;39;20024;-58
2021/07/10 03:55:11;;;;;;;12.27;8.82;;;;;;;;;;1493314;39;20035;-58
2021/07/10 03:56:16;;;;;;;13.68;8.15;;;;;;;;;;1493389;39;20102;-58
2021/07/10 03:57:17;;;;;;;18.30;8.13;;;;;;;;;;1493173;39;20028;-58
2021/07/10 03:58:19;;;;;;;13.68;8.82;;;;;;;;;;1493260;39;20320;-59
2021/07/10 03:59:20;;;;;;;15.63;8.32;;;;;;;;;;1493467;39;20035;-57
2021/07/10 04:00:23;;;;;;;13.65;8.18;;;;;;;;;;1493271;39;20024;-57
2021/07/10 04:01:24;;;;;;;12.35;8.23;;;;;;;;;;1493356;39;20383;-58
2021/07/10 04:02:26;;;;;;;16.42;8.23;;;;;;;;;;1493330;39;20028;-58
2021/07/10 04:03:26;;;;;;;13.45;8.00;;;;;;;;;;1493394;39;20239;-57
2021/07/10 04:04:28;;;;;;;12.07;7.97;;;;;;;;;;1493264;39;20020;-58
2021/07/10 04:05:29;;;;;;;18.83;7.97;;;;;;;;;;1493440;39;20287;-58
2021/07/10 04:06:31;;;;;;;12.75;7.93;;;;;;;;;;1493303;39;20020;-57
2021/07/10 04:07:32;;;;;;;13.70;8.00;;;;;;;;;;1493320;39;20031;-57
2021/07/10 04:08:34;;;;;;;12.48;7.32;;;;;;;;;;1493587;39;20024;-60
2021/07/10 04:09:35;;;;;;;11.30;7.88;;;;;;;;;;1493321;39;20020;-60
2021/07/10 04:10:37;;;;;;;9.88;6.88;;;;;;;;;;1493174;39;20379;-59
2021/07/10 04:11:39;;;;;;;11.52;7.47;;;;;;;;;;1493294;39;20027;-59
2021/07/10 04:12:42;;;;;;;11.35;7.57;;;;;;;;;;1493373;39;20303;-60
2021/07/10 04:13:43;;;;;;;10.38;7.78;;;;;;;;;;1493191;39;20024;-61
2021/07/10 04:14:45;;;;;;;12.70;7.82;;;;;;;;;;1493340;39;20027;-60
2021/07/10 04:15:47;;;;;;;9.98;7.75;;;;;;;;;;1493187;39;20021;-61
2021/07/10 04:16:48;;;;;;;14.13;8.02;;;;;;;;;;1493362;39;20020;-60
2021/07/10 04:17:50;;;;;;;11.82;7.45;;;;;;;;;;1493288;39;20380;-61
2021/07/10 04:18:51;;;;;;;12.93;7.72;;;;;;;;;;1493212;39;20294;-61
2021/07/10 04:19:52;;;;;;;10.80;7.93;;;;;;;;;;1493451;39;20016;-61
2021/07/10 04:20:53;;;;;;;11.20;7.97;;;;;;;;;;1493270;39;20031;-60
2021/07/10 04:21:55;;;;;;;11.98;7.22;;;;;;;;;;1493260;39;20039;-60
2021/07/10 04:22:56;;;;;;;13.65;8.30;;;;;;;;;;1493223;39;20028;-60
2021/07/10 04:23:58;;;;;;;10.23;7.78;;;;;;;;;;1493394;39;20028;-60
2021/07/10 04:25:03;;;;;;;15.60;8.98;;;;;;;;;;1493202;39;20031;-60
2021/07/10 04:26:05;;;;;;;10.77;8.23;;;;;;;;;;1493337;39;20028;-60
2021/07/10 04:27:07;;;;;;;11.63;7.35;;;;;;;;;;1493141;39;20024;-61
2021/07/10 04:28:09;;;;;;;11.07;8.55;;;;;;;;;;1493286;39;20028;-61
2021/07/10 04:29:09;;;;;;;10.90;7.75;;;;;;;;;;1493154;39;20020;-61
2021/07/10 04:30:12;;;;;;;9.50;6.95;;;;;;;;;;1493331;39;20031;-60
2021/07/10 04:31:13;;;;;;;13.52;7.65;;;;;;;;;;1493227;39;20024;-60
2021/07/10 04:32:16;;;;;;;11.88;8.00;;;;;;;;;;1493376;39;20024;-60
2021/07/10 04:33:16;;;;;;;11.77;7.82;;;;;;;;;;1493135;39;20024;-61
2021/07/10 04:34:18;;;;;;;13.77;8.25;;;;;;;;;;1493137;39;20287;-61
2021/07/10 04:35:20;;;;;;;11.50;8.50;;;;;;;;;;1492690;39;20047;-61
2021/07/10 04:36:22;;;;;;;10.00;7.35;;;;;;;;;;1492783;39;20024;-60
2021/07/10 04:37:23;;;;;;;13.95;7.53;;;;;;;;;;1493091;39;20028;-60
2021/07/10 04:38:25;;;;;;;12.27;7.95;;;;;;;;;;1493287;39;20449;-60
2021/07/10 04:39:26;;;;;;;10.07;7.93;;;;;;;;;;1493122;39;20019;-61
2021/07/10 04:40:27;;;;;;;12.10;7.47;;;;;;;;;;1493246;39;20287;-60
2021/07/10 04:41:28;;;;;;;9.70;6.97;;;;;;;;;;1493218;39;20101;-61
2021/07/10 04:42:32;;;;;;;13.55;7.85;;;;;;;;;;1493377;39;20024;-60
2021/07/10 04:43:35;;;;;;;9.15;6.95;;;;;;;;;;1493271;39;20031;-61
2021/07/10 04:44:36;;;;;;;12.60;7.25;;;;;;;;;;1493078;39;20028;-60
2021/07/10 04:45:38;;;;;;;10.52;7.38;;;;;;;;;;1493404;39;20024;-60
2021/07/10 04:46:39;;;;;;;12.00;7.63;;;;;;;;;;1493168;39;20418;-60
2021/07/10 04:47:41;;;;;;;10.57;7.53;;;;;;;;;;1493458;39;20036;-59
2021/07/10 04:48:42;;;;;;;15.23;7.90;;;;;;;;;;1493199;39;20024;-61
2021/07/10 04:49:44;;;;;;;11.93;7.93;;;;;;;;;;1493264;39;20024;-62
2021/07/10 04:50:45;;;;;;;13.50;7.18;;;;;;;;;;1493416;39;20031;-60
2021/07/10 04:51:47;;;;;;;8.68;6.72;;;;;;;;;;1493343;39;20036;-60
2021/07/10 04:52:49;;;;;;;8.48;6.78;;;;;;;;;;1492881;39;20388;-61
2021/07/10 04:53:50;;;;;;;12.27;7.45;;;;;;;;;;1493082;39;20384;-60
2021/07/10 04:54:51;;;;;;;12.75;7.32;;;;;;;;;;1493331;39;20030;-60
2021/07/10 04:55:52;;;;;;;12.02;7.65;;;;;;;;;;1493378;39;20069;-60
2021/07/10 04:56:54;;;;;;;11.70;7.78;;;;;;;;;;1493296;39;20356;-61
2021/07/10 04:57:57;;;;;;;12.05;7.72;;;;;;;;;;1493234;39;20031;-60
2021/07/10 04:58:58;;;;;;;10.38;7.18;;;;;;;;;;1493150;39;20057;-60
2021/07/10 04:59:59;;;;;;;10.18;7.47;;;;;;;;;;1493210;39;20031;-61
2021/07/10 05:01:01;;;;;;;9.98;6.85;;;;;;;;;;1493293;39;20028;-61
2021/07/10 05:02:02;;;;;;;9.75;7.03;;;;;;;;;;1493038;39;20280;-60
2021/07/10 05:03:04;;;;;;;10.77;7.35;;;;;;;;;;1493088;39;20050;-60
2021/07/10 05:04:05;;;;;;;10.55;7.28;;;;;;;;;;1493269;39;20078;-60
2021/07/10 05:05:07;;;;;;;10.15;7.25;;;;;;;;;;1493108;39;20393;-61
2021/07/10 05:06:09;;;;;;;10.32;7.53;;;;;;;;;;1493033;39;20027;-61
2021/07/10 05:07:11;;;;;;;10.20;6.88;;;;;;;;;;1493292;39;20035;-60
2021/07/10 05:08:11;;;;;;;9.43;7.47;;;;;;;;;;1493140;39;20020;-61
2021/07/10 05:09:14;;;;;;;10.00;7.10;;;;;;;;;;1493248;39;20264;-61
2021/07/10 05:10:15;;;;;;;10.50;7.28;;;;;;;;;;1493138;39;20108;-60
2021/07/10 05:11:18;;;;;;;12.27;7.40;;;;;;;;;;1492813;39;20100;-60
2021/07/10 05:12:22;;;;;;;11.43;7.15;;;;;;;;;;1492832;39;20024;-62
2021/07/10 05:13:25;;;;;;;12.63;7.68;;;;;;;;;;1493278;39;20028;-61
2021/07/10 05:14:25;;;;;;;14.38;7.28;;;;;;;;;;1493039;39;20034;-60
2021/07/10 05:15:27;;;;;;;10.68;7.93;;;;;;;;;;1493069;39;20043;-61
2021/07/10 05:16:28;;;;;;;9.90;7.40;;;;;;;;;;1493156;39;20024;-61
2021/07/10 05:17:30;;;;;;;12.98;7.75;;;;;;;;;;1493269;39;20032;-60
2021/07/10 05:18:31;;;;;;;11.77;7.60;;;;;;;;;;1493139;39;20398;-61
2021/07/10 05:19:33;;;;;;;10.88;7.75;;;;;;;;;;1493327;39;20028;-60
2021/07/10 05:20:33;;;;;;;9.52;7.70;;;;;;;;;;1493042;39;20016;-61
2021/07/10 05:21:35;;;;;;;12.75;7.93;;;;;;;;;;1493125;39;20070;-60
2021/07/10 05:22:36;;;;;;;11.23;7.13;;;;;;;;;;1493000;39;20406;-61
2021/07/10 05:23:38;;;;;;;10.20;7.20;;;;;;;;;;1493151;39;20357;-60
2021/07/10 05:24:39;;;;;;;10.30;7.70;;;;;;;;;;1493106;39;20028;-61
2021/07/10 05:25:41;;;;;;;13.15;7.78;;;;;;;;;;1493277;39;20384;-61
2021/07/10 05:26:42;;;;;;;12.20;7.60;;;;;;;;;;1493191;39;20035;-61
2021/07/10 05:27:43;;;;;;;9.35;7.00;;;;;;;;;;1493297;39;20290;-60
2021/07/10 05:28:46;;;;;;;11.35;7.05;;;;;;;;;;1493003;39;20020;-61
2021/07/10 05:29:47;;;;;;;12.13;7.22;;;;;;;;;;1493102;39;20031;-61
2021/07/10 05:30:49;;;;;;;9.55;6.95;;;;;;;;;;1493009;39;20024;-62
2021/07/10 05:31:51;;;;;;;9.93;6.97;;;;;;;;;;1493346;39;20032;-61
2021/07/10 05:32:52;;;;;;;8.95;6.63;;;;;;;;;;1493122;39;20024;-62
2021/07/10 05:33:54;;;;;;;8.32;6.50;;;;;;;;;;1493155;39;20042;-61
2021/07/10 05:34:55;;;;;;;9.73;6.10;;;;;;;;;;1493043;39;20269;-61
2021/07/10 05:35:57;;;;;;;10.10;7.50;;;;;;;;;;1493043;39;20035;-60
2021/07/10 05:36:58;;;;;;;8.55;7.00;;;;;;;;;;1492946;39;20031;-61
2021/07/10 05:37:59;;;;;;;8.30;6.82;;;;;;;;;;1493131;39;20020;-61
2021/07/10 05:39:00;;;;;;;8.00;6.28;;;;;;;;;;1493240;39;20393;-61
2021/07/10 05:40:02;;;;;;;9.38;6.65;;;;;;;;;;1493140;39;20039;-61
2021/07/10 05:41:04;;;;;;;7.88;7.07;;;;;;;;;;1493117;39;20027;-62
2021/07/10 05:42:06;;;;;;;7.35;6.20;;;;;;;;;;1493298;39;20030;-60
2021/07/10 05:43:07;;;;;;;8.73;6.60;;;;;;;;;;1492947;39;20022;-61
2021/07/10 05:44:10;;;;;;;9.20;6.47;;;;;;;;;;1492941;39;20020;-62
2021/07/10 05:45:11;;;;;;;8.25;6.53;;;;;;;;;;1492934;39;20031;-61
2021/07/10 05:46:14;;;;;;;8.55;6.07;;;;;;;;;;1493025;39;20028;-62
2021/07/10 05:47:15;;;;;;;9.80;6.43;;;;;;;;;;1493071;39;20035;-60
2021/07/10 05:48:17;;;;;;;10.73;7.82;;;;;;;;;;1493046;39;20291;-61
2021/07/10 05:49:17;;;;;;;10.52;6.63;;;;;;;;;;1492974;39;20342;-61
2021/07/10 05:50:19;;;;;;;7.05;6.35;;;;;;;;;;1493120;39;20020;-62
2021/07/10 05:51:20;;;;;;;8.18;6.28;;;;;;;;;;1493119;39;20031;-60
2021/07/10 05:52:22;;;;;;;12.77;8.40;;;;;;;;;;1493216;39;20020;-62
2021/07/10 05:53:23;;;;;;;7.40;5.57;;;;;;;;;;1493069;39;20028;-62
2021/07/10 05:54:24;;;;;;;9.55;6.03;;;;;;;;;;1493233;39;20279;-61
2021/07/10 05:55:25;;;;;;;9.13;6.38;;;;;;;;;;1492975;39;20366;-60
2021/07/10 05:56:27;;;;;;;10.60;8.35;;;;;;;;;;1493131;39;20032;-61
2021/07/10 05:57:29;;;;;;;10.80;7.20;;;;;;;;;;1492947;39;20303;-61
2021/07/10 05:58:31;;;;;;;11.77;6.57;;;;;;;;;;1493052;39;20028;-62
2021/07/10 05:59:33;;;;;;;11.70;7.60;;;;;;;;;;1493081;39;20395;-62
2021/07/10 06:00:35;;;;;;;14.18;9.43;;;;;;;;;;1492428;39;20023;-62
2021/07/10 06:01:36;;;;;;;13.10;8.38;;;;;;;;;;1492573;39;20031;-61
2021/07/10 06:02:38;;;;;;;14.00;8.25;;;;;;;;;;1493014;39;20027;-62
2021/07/10 06:03:39;;;;;;;10.32;7.70;;;;;;;;;;1492816;39;20024;-62